Latest Weather Observations for Richmond

IDN60901

Issued at 9:15 am EST Thursday 31 July 2014 (issued every 10 minutes, with the page automatically refreshed every 10 minutes)

About weather observations | Map of Sydney area stations | Latest observations for Sydney area | Other Formats
Station Details ID: 067105 Name: RICHMOND RAAF Lat: -33.60 Lon: 150.78 Height: 19.0 m
Data from the previous 72 hours. | See also: Recent months at Richmond
Date/Time
EST
Tmp

°C
App
Tmp
°C
Dew
Point
°C
Rel
Hum
%
Delta-T

°C
Wind Press
QNH
hPa
Press
MSL
hPa
Rain
since
9 am
mm
Dir
 
Spd
km/h
Gust
km/h
Spd
kts
Gust
kts
31/09:00am 17.9 13.1 5.5 44 6.0 NNE 20 28 11 15 1014.4 1014.4 0.0
31/08:30am 16.4 11.6 5.7 49 5.2 N 20 26 11 14 1014.5 - 0.0
31/08:00am 14.1 11.1 6.2 59 3.8 NE 11 17 6 9 1014.6 1014.6 0.0
31/07:30am 12.2 9.9 5.8 65 3.0 N 7 13 4 7 1014.9 - 0.0
31/07:00am 12.2 8.1 6.0 66 2.9 NNE 17 26 9 14 1014.6 1014.6 0.0
31/06:30am 10.5 6.9 5.1 69 2.5 NNE 13 20 7 11 1014.8 - 0.0
31/06:00am 12.7 9.0 6.1 64 3.1 N 15 20 8 11 1014.5 1014.5 0.0
31/05:30am 12.4 10.0 6.9 69 2.6 N 9 15 5 8 1014.4 - 0.0
31/05:00am 12.1 9.1 6.2 67 2.8 NNW 11 17 6 9 1014.4 1014.4 0.0
31/04:30am 12.6 8.2 6.6 67 2.9 NNW 19 24 10 13 1014.4 - 0.0
31/04:00am 13.0 8.5 6.8 66 3.0 NNW 20 26 11 14 1014.6 1014.6 0.0
31/03:30am 12.9 9.4 7.1 68 2.8 NNW 15 22 8 12 1014.8 - 0.0
31/03:00am 12.0 8.8 6.7 70 2.5 NNW 13 19 7 10 1015.0 1015.0 0.0
31/02:30am 12.6 9.9 7.5 71 2.5 N 11 17 6 9 1015.2 - 0.0
31/02:00am 12.0 9.9 6.7 70 2.5 N 7 11 4 6 1015.6 1015.6 0.0
31/01:30am 13.8 10.4 7.8 67 3.0 N 15 22 8 12 1015.8 - 0.0
31/01:00am 11.9 8.9 7.8 76 2.0 NNE 13 17 7 9 1016.1 1016.1 0.0
31/12:30am 11.2 8.4 7.1 76 2.0 NNE 11 13 6 7 1016.4 - 0.0
31/12:00am 11.8 9.3 6.7 71 2.4 NNE 9 11 5 6 1016.9 1016.9 0.0
 
Date/Time
EST
Tmp

°C
App
Tmp
°C
Dew
Point
°C
Rel
Hum
%
Delta-T

°C
Wind Press
QNH
hPa
Press
MSL
hPa
Rain
since
9 am
mm
Dir
 
Spd
km/h
Gust
km/h
Spd
kts
Gust
kts
30/11:30pm 12.8 10.5 7.5 70 2.6 N 9 11 5 6 1017.2 - 0.0
30/11:00pm 12.6 10.2 7.1 69 2.6 N 9 11 5 6 1017.4 1017.4 0.0
30/10:30pm 13.3 10.3 7.5 68 2.8 NW 13 17 7 9 1017.6 - 0.0
30/10:00pm 12.6 9.4 6.9 68 2.7 NNW 13 17 7 9 1017.7 1017.7 0.0
30/09:30pm 13.5 11.2 7.3 66 3.0 NNW 9 11 5 6 1017.6 - 0.0
30/09:00pm 13.9 11.2 7.4 65 3.2 NNW 11 13 6 7 1017.6 1017.6 0.0
30/08:30pm 12.2 10.2 6.9 70 2.5 NNW 7 9 4 5 1017.6 - 0.0
30/08:00pm 13.5 11.7 7.3 66 3.0 NW 6 7 3 4 1017.7 1017.7 0.0
30/07:30pm 12.8 10.8 7.0 68 2.8 WSW 7 9 4 5 1017.8 - 0.0
30/07:00pm 13.8 11.8 7.3 65 3.2 WNW 7 7 4 4 1017.5 1017.5 0.0
30/06:30pm 15.3 13.5 7.1 58 4.0 WNW 6 7 3 4 1017.0 - 0.0
30/06:00pm 16.8 14.1 7.2 53 4.8 SW 11 13 6 7 1016.6 1016.6 0.0
30/05:30pm 17.6 14.8 7.1 50 5.3 SW 11 17 6 9 1016.1 - 0.0
30/05:00pm 19.4 16.2 6.8 44 6.3 WSW 13 17 7 9 1015.7 1015.7 0.0
30/04:30pm 20.6 16.3 6.9 41 7.0 WSW 19 26 10 14 1015.6 - 0.0
30/04:00pm 21.5 15.4 6.6 38 7.6 W 28 35 15 19 1015.3 1015.3 0.0
30/03:30pm 21.8 15.8 6.9 38 7.6 WSW 28 39 15 21 1015.2 - 0.0
30/03:00pm 22.2 15.7 6.4 36 8.0 W 30 43 16 23 1015.1 1015.1 0.0
30/02:30pm 22.3 15.2 6.5 36 8.1 W 33 44 18 24 1015.3 - 0.0
30/02:00pm 22.3 15.3 6.1 35 8.2 WNW 32 52 17 28 1015.3 1015.3 0.0
30/01:54pm 22.5 16.2 5.9 34 8.4 WNW 28 52 15 28 1015.3 - 0.0
30/01:30pm 22.3 16.2 6.5 36 8.1 WNW 28 43 15 23 1015.3 - 0.0
30/01:17pm 22.1 14.6 6.3 36 8.0 W 35 54 19 29 1015.5 - 0.0
30/01:00pm 22.0 13.7 6.3 36 8.0 W 39 56 21 30 1015.7 1015.7 0.0
30/12:42pm 22.0 14.5 6.3 36 8.0 WNW 35 56 19 30 1015.9 - 0.0
30/12:30pm 22.1 15.9 6.3 36 8.0 W 28 41 15 22 1016.0 - 0.0
30/12:00pm 22.2 16.1 6.4 36 8.0 WNW 28 43 15 23 1016.4 1016.4 0.0
30/11:30am 21.6 15.5 6.7 38 7.6 WNW 28 41 15 22 1016.8 - 0.0
30/11:00am 21.9 16.0 7.3 39 7.5 WNW 28 37 15 20 1017.4 1017.4 0.0
30/10:30am 20.6 15.0 7.2 42 6.8 NW 26 39 14 21 1017.9 - 0.0
30/10:00am 20.1 17.2 6.4 41 6.9 N 11 19 6 10 1018.7 1018.7 0.0
30/09:30am 19.4 16.1 6.2 42 6.6 WNW 13 20 7 11 1018.5 - 0.0
30/09:00am 18.5 14.4 6.4 45 6.0 NW 17 22 9 12 1018.2 1018.2 0.0
30/08:30am 16.8 12.9 6.9 52 4.9 NW 17 22 9 12 1018.5 - 0.0
30/08:00am 12.3 8.1 5.9 65 3.0 NW 17 20 9 11 1018.5 1018.5 0.0
30/07:30am 11.1 6.0 4.3 63 3.0 NNW 20 24 11 13 1018.6 - 0.0
30/07:00am 10.5 7.9 4.4 66 2.7 N 7 9 4 5 1018.8 1018.8 0.0
30/06:30am 9.7 5.8 3.2 64 2.8 N 13 17 7 9 1018.4 - 0.0
30/06:00am 11.5 8.5 4.3 61 3.2 N 9 13 5 7 1018.1 1018.1 0.0
30/05:30am 10.4 7.9 3.9 64 2.9 ENE 6 15 3 8 1017.6 - 0.0
30/05:00am 11.3 6.8 4.1 61 3.2 N 17 19 9 10 1017.2 1017.2 0.0
30/04:30am 11.3 7.2 4.1 61 3.2 N 15 20 8 11 1016.8 - 0.0
30/04:00am 11.7 8.8 4.4 61 3.3 N 9 15 5 8 1016.7 1016.7 0.0
30/03:30am 10.7 7.6 3.5 61 3.2 NNE 9 13 5 7 1016.7 - 0.0
30/03:00am 10.4 6.9 3.7 63 2.9 N 11 13 6 7 1016.4 1016.4 0.0
30/02:30am 10.5 7.8 5.5 71 2.3 N 9 11 5 6 1016.3 - 0.0
30/02:00am 7.1 5.2 3.0 75 1.7 NW 2 7 1 4 1016.3 1016.3 0.0
30/01:30am 9.7 7.6 4.1 68 2.5 N 4 9 2 5 1016.2 - 0.0
30/01:00am 10.2 7.7 3.7 64 2.8 S 6 9 3 5 1016.3 1016.3 0.0
30/12:30am 11.5 9.4 3.8 59 3.4 ESE 4 9 2 5 1016.2 - 0.0
30/12:00am 14.5 10.8 4.5 51 4.6 NNW 13 17 7 9 1016.1 1016.1 0.0
 
Date/Time
EST
Tmp

°C
App
Tmp
°C
Dew
Point
°C
Rel
Hum
%
Delta-T

°C
Wind Press
QNH
hPa
Press
MSL
hPa
Rain
since
9 am
mm
Dir
 
Spd
km/h
Gust
km/h
Spd
kts
Gust
kts
29/11:30pm 14.8 10.0 4.5 50 4.8 NNW 19 26 10 14 1016.0 - 0.0
29/11:00pm 15.5 10.2 4.8 49 5.0 N 22 30 12 16 1016.0 1016.0 0.0
29/10:30pm 15.4 10.4 4.8 49 5.0 N 20 26 11 14 1016.0 - 0.0
29/10:00pm 16.0 10.6 4.7 47 5.3 N 22 32 12 17 1015.8 1015.8 0.0
29/09:30pm 16.1 11.1 4.5 46 5.4 N 20 28 11 15 1016.1 - 0.0
29/09:00pm 16.5 11.6 4.9 46 5.5 N 20 28 11 15 1016.0 1016.0 0.0
29/08:30pm 16.1 11.3 4.5 46 5.4 N 19 24 10 13 1016.2 - 0.0
29/08:00pm 15.2 11.0 3.7 46 5.3 N 15 20 8 11 1016.2 1016.2 0.0
29/07:30pm 15.4 11.1 3.5 45 5.4 N 15 17 8 9 1016.3 - 0.0
29/07:00pm 16.2 12.2 2.9 41 6.0 NNW 13 17 7 9 1016.3 1016.3 0.0
29/06:30pm 17.1 12.6 1.9 36 6.8 NW 15 19 8 10 1016.2 - 0.0
29/06:00pm 18.6 13.4 2.4 34 7.4 NW 19 24 10 13 1015.9 1015.9 0.0
29/05:30pm 18.2 13.8 2.5 35 7.2 NW 15 19 8 10 1015.3 - 0.0
29/05:00pm 19.8 14.6 2.6 32 8.0 NW 19 24 10 13 1014.9 1014.9 0.0
29/04:30pm 21.0 16.6 2.8 30 8.6 WNW 15 19 8 10 1014.5 - 0.0
29/04:00pm 22.1 16.7 2.2 27 9.3 W 20 26 11 14 1014.6 1014.6 0.0
29/03:34pm 22.1 15.1 1.7 26 9.5 WNW 28 50 15 27 1013.8 - 0.0
29/03:30pm 22.5 16.4 2.6 27 9.4 WNW 24 39 13 21 1013.8 - 0.0
29/03:00pm 22.6 15.6 2.1 26 9.6 WNW 28 44 15 24 1013.6 1013.6 0.0
29/02:30pm 22.9 16.1 2.9 27 9.6 WNW 28 37 15 20 1013.7 - 0.0
29/02:00pm 23.0 16.1 2.5 26 9.7 W 28 41 15 22 1013.9 1013.9 0.0
29/01:30pm 23.2 17.8 2.7 26 9.8 WNW 20 30 11 16 1014.3 - 0.0
29/01:00pm 21.5 17.1 4.6 33 8.3 N 17 32 9 17 1014.6 1014.6 0.0
29/12:30pm 20.4 15.0 4.4 35 7.7 N 22 32 12 17 1015.3 - 0.0
29/12:00pm 20.1 14.0 4.6 36 7.5 N 26 35 14 19 1015.8 1015.8 0.0
29/11:30am 18.7 11.3 4.1 38 6.9 N 32 44 17 24 1016.4 - 0.0
29/11:00am 17.9 11.3 4.1 40 6.5 N 28 41 15 22 1017.4 1017.4 0.0
29/10:30am 18.0 10.7 2.3 35 7.1 NNW 30 41 16 22 1017.8 - 0.0
29/10:00am 17.8 13.2 3.7 39 6.6 N 17 28 9 15 1018.3 1018.3 0.0
29/09:30am 16.7 11.7 4.4 44 5.8 N 20 28 11 15 1018.5 - 0.0
29/09:00am 15.4 10.0 4.5 48 5.1 NNW 22 28 12 15 1018.7 1018.7 0.0
29/08:30am 14.6 10.6 4.9 52 4.5 N 15 20 8 11 1018.4 - 0.0
29/08:00am 14.9 10.8 4.6 50 4.8 N 15 24 8 13 1018.5 1018.5 0.0
29/07:30am 12.4 9.6 5.1 61 3.4 N 9 13 5 7 1018.6 - 0.0
29/07:00am 12.3 9.8 5.0 61 3.3 N 7 13 4 7 1018.5 1018.5 0.0
29/06:30am 12.1 8.8 4.6 60 3.4 N 11 15 6 8 1018.4 - 0.0
29/06:00am 11.3 8.9 4.5 63 3.1 N 6 9 3 5 1018.3 1018.3 0.0
29/05:30am 12.2 9.3 4.7 60 3.4 N 9 13 5 7 1018.1 - 0.0
29/05:00am 12.3 8.7 5.0 61 3.3 N 13 17 7 9 1018.2 1018.2 0.0
29/04:30am 12.4 8.1 5.1 61 3.4 NNW 17 22 9 12 1018.0 - 0.0
29/04:00am 12.1 8.2 5.3 63 3.1 NNW 15 20 8 11 1017.9 1017.9 0.0
29/03:30am 11.8 7.5 5.2 64 3.0 NW 17 20 9 11 1018.1 - 0.0
29/03:00am 11.5 8.4 5.4 66 2.8 NNW 11 15 6 8 1017.9 1017.9 0.0
29/02:30am 11.3 8.6 5.6 68 2.6 NW 9 15 5 8 1018.2 - 0.0
29/02:00am 11.4 8.7 5.5 67 2.7 NNW 9 13 5 7 1018.3 1018.3 0.0
29/01:30am 12.5 8.2 5.4 62 3.3 NNW 17 19 9 10 1018.2 - 0.0
29/01:00am 10.9 8.2 5.4 69 2.5 NNE 9 11 5 6 1018.3 1018.3 0.0
29/12:30am 11.5 7.3 5.6 67 2.7 NNE 17 19 9 10 1018.3 - 0.0
29/12:00am 12.3 8.1 5.7 64 3.1 NE 17 22 9 12 1018.6 1018.6 0.0
 
Date/Time
EST
Tmp

°C
App
Tmp
°C
Dew
Point
°C
Rel
Hum
%
Delta-T

°C
Wind Press
QNH
hPa
Press
MSL
hPa
Rain
since
9 am
mm
Dir
 
Spd
km/h
Gust
km/h
Spd
kts
Gust
kts
28/11:30pm 11.6 8.9 5.7 67 2.7 N 9 13 5 7 1018.9 - 0.0
28/11:00pm 11.6 8.5 5.5 66 2.8 N 11 13 6 7 1019.4 1019.4 0.0
28/10:30pm 11.9 9.1 5.3 64 3.0 N 9 13 5 7 1019.4 - 0.0
28/10:00pm 11.1 8.7 5.4 68 2.6 N 7 9 4 5 1019.7 1019.7 0.0
28/09:30pm 12.5 10.1 5.4 62 3.3 N 7 9 4 5 1019.6 - 0.0
28/09:00pm 12.5 9.9 6.1 65 3.0 N 9 11 5 6 1019.6 1019.6 0.0
28/08:30pm 10.8 8.3 4.7 66 2.8 NNW 7 9 4 5 1019.3 - 0.0
28/08:00pm 13.6 10.4 5.0 56 4.0 NNW 11 13 6 7 1019.3 1019.3 0.0
28/07:30pm 14.0 11.1 4.9 54 4.2 NW 9 11 5 6 1019.1 - 0.0
28/07:00pm 14.8 11.9 4.5 50 4.8 W 9 13 5 7 1019.2 1019.2 0.0
28/06:30pm 15.1 10.7 4.8 50 4.8 W 17 19 9 10 1019.1 - 0.0
28/06:00pm 15.0 12.3 5.8 54 4.4 W 9 17 5 9 1018.7 1018.7 0.0
28/05:30pm 14.9 14.0 6.2 56 4.2 CALM 0 0 0 0 1018.4 - 0.0
28/05:00pm 16.5 13.9 6.3 51 5.0 W 9 13 5 7 1018.3 1018.3 0.0
28/04:30pm 17.2 13.8 5.8 47 5.5 W 13 20 7 11 1017.8 - 0.0
28/04:00pm 17.9 15.2 5.8 45 5.9 NW 9 11 5 6 1017.7 1017.7 0.0
28/03:30pm 18.6 14.1 4.4 39 6.8 WNW 17 20 9 11 1017.7 - 0.0
28/03:00pm 18.7 14.3 4.5 39 6.8 W 17 20 9 11 1017.8 1017.8 0.0
28/02:30pm 18.7 13.2 4.1 38 6.9 WNW 22 30 12 16 1018.1 - 0.0
28/02:00pm 19.0 14.0 4.4 38 7.0 WNW 20 30 11 16 1018.2 1018.2 0.0
28/01:30pm 18.8 14.9 3.4 36 7.2 W 13 20 7 11 1018.3 - 0.0
28/01:00pm 18.1 15.5 4.3 40 6.5 SSW 7 13 4 7 1018.8 1018.8 0.0
28/12:30pm 17.9 14.1 3.8 39 6.6 WSW 13 19 7 10 1019.6 - 0.0
28/12:00pm 17.6 13.6 2.8 37 6.8 WSW 13 19 7 10 1020.1 1020.1 0.0
28/11:30am 17.0 13.5 3.7 41 6.2 WNW 11 19 6 10 1020.4 - 0.0
28/11:00am 16.0 14.3 5.9 51 4.9 WNW 4 13 2 7 1020.9 1020.9 0.0
28/10:30am 14.8 13.4 7.1 60 3.8 NNE 4 9 2 5 1021.2 - 0.0
28/10:00am 12.0 9.7 7.3 73 2.3 NNE 9 11 5 6 1021.6 1021.6 0.0
28/09:30am 10.2 8.5 7.6 84 1.2 N 6 9 3 5 1021.8 - 0.0

Latest Capital City Observations: Canberra | Sydney | Melbourne | Brisbane | Adelaide | Perth | Hobart | Darwin

Other Formats:

Comma delimited format used in spreadsheet applications
http://www.bom.gov.au/fwo/IDN60901/IDN60901.95753.axf

JavaScript Object Notation format (JSON) in row-major order
http://www.bom.gov.au/fwo/IDN60901/IDN60901.95753.json